Barbados Meteorological Services
Auto gathered TAF list
Powered by Apparatus software
For Flight AC1715
Contact Number 1-(246)-535-0021/2/3/4/5/6
WEB: http://www.barbadosweather.org

**********************************************

2019/01/22 18:46
TAF TXKF 221742Z 2218/2318 33023KT 9999 SCT040 BKN050
BECMG 2306/2309 01012KT
BECMG 2316/2318 06010KT


**********************************************
2019/01/22 18:58
TAF TLPL 221700Z 2218/2318 07020KT 9999 SCT026 PROB30
TEMPO 2306/2318 SHRA


**********************************************
2019/01/22 18:48
TAF TJSJ 221745Z 2218/2318 08015G22KT P6SM VCSH SCT025 SCT050
FM222200 07012KT P6SM SCT030
FM231400 07019G25KT P6SM SCT025


**********************************************
2019/01/22 18:09
TAF TFFR 221600Z 2218/2318 10012KT 9999 SCT025 SCT045 PROB30
TEMPO 2218/2222 10015G26KT PROB30
TEMPO 2218/2309 4000 SHRA SCT018TCU


**********************************************
2019/01/22 18:13
TAF TBPB 221700Z 2218/2318 09018KT 9999 SCT020= TAF TVSA 221700Z 2218/2318 07014KT 9999 SCT020 PROB30
TEMPO 2218/2224 BKN014


**********************************************
2019/01/22 12:45
TAF TAF TAPA 221700Z 2212/2312 07012KT 9999 SCT021 PROB30
TEMPO 2218/2224 SHRA


**********************************************
2019/01/22 15:57
TAF
AMD KPHL 221450Z 2215/2318 32010KT P6SM SKC
FM221800 26007KT P6SM SCT200
FM222100 22005KT P6SM SCT200
FM230000 18005KT P6SM BKN200
FM231500 21008KT P6SM SCT040 OVC150


**********************************************
2019/01/22 12:22
TAF KORF 221120Z 2212/2312 36010KT P6SM SCT250
FM222000 06004KT P6SM BKN250
FM230200 16005KT P6SM BKN250


**********************************************
2019/01/22 18:46
TAF KJFK 221739Z 2218/2324 30011KT P6SM FEW250
FM221900 28008KT P6SM FEW250
FM222200 VRB05KT P6SM SCT250
FM230700 20007KT P6SM SCT100 BKN250
FM231300 20010KT P6SM SCT040 OVC100
FM231600 21014KT P6SM BKN040 OVC080
FM232100 20013KT P6SM VCSH SCT020 OVC040


**********************************************
2019/01/22 18:58
TAF KIAD 221756Z 2218/2324 VRB04KT P6SM FEW100
FM230200 17007KT P6SM BKN150
FM231200 19008G17KT P6SM OVC025
FM231800 19011G19KT P6SM OVC015 WS020/19040KT


**********************************************
2019/01/22 18:45
TAF KEWR 221739Z 2218/2324 29007KT P6SM FEW250
FM222200 VRB05KT P6SM SCT250
FM230700 21006KT P6SM SCT100 BKN250
FM231200 21008KT P6SM SCT040 OVC100
FM231500 20012KT P6SM BKN040 OVC080
FM232000 21011KT P6SM VCSH SCT020 OVC040


**********************************************
2019/01/22 18:46
TAF KCHS 221740Z 2218/2318 08011KT P6SM FEW200
FM230000 09009KT P6SM BKN040
TEMPO 2303/2306 BKN025
FM230600 12007KT P6SM VCSH BKN035
FM231600 16012G19KT P6SM VCSH BKN050


**********************************************
2019/01/22 18:46
TAF KBOS 221740Z 2218/2324 30013G26KT P6SM SKC
FM222100 29010KT P6SM FEW250
FM230600 23006KT P6SM SCT200
FM231200 20007KT P6SM BKN110
FM231400 21011G21KT P6SM BKN150
FM231800 21015G28KT P6SM BKN100


**********************************************
2019/01/22 18:42
TAF TAF CYYZ 221738Z 2218/2324 16008KT P6SM FEW015 BKN080
FM222100 14010G20KT P6SM FEW080 SCT140 BKN240
BECMG 2223/2224 15010KT
FM230300 16008KT P6SM -SN BKN040 OVC080
TEMPO 2304/2306 21/2SM -SN
FM230600 17007KT 21/2SM -SN OVC020
TEMPO 2306/2310 6SM -SN OVC030
FM231000 16010KT 2SM -SN SCT010 OVC015 PROB30 2310/2312 3SM -SNPL OVC008
FM231200 16010KT 3SM -PLSN SCT006 OVC012 PROB40 2312/2315 2SM -FZRA BR OVC006
FM231500 18012KT 2SM -RA BR OVC006 PROB30 2315/2316 3SM -FZRA BR
FM231700 19010G20KT 2SM -RA BR OVC005 PROB30 2317/2320 OVC003
FM232000 19015G25KT 4SM -RA BR OVC008
FM232300 23020G35KT P6SM -RA FEW008 OVC020
RMK NXT FCST BY 222100Z


**********************************************
2019/01/22 18:42
TAF CYUL 221738Z 2218/2318 25015KT P6SM FEW010 SCT240
FM222300 VRB03KT P6SM BKN100 OVC180
FM230200 05005KT P6SM OVC080
FM230800 07006KT 2SM -SN OVC040
FM231600 07010KT 21/2SM -SN OVC015
RMK NXT FCST BY 222100Z


**********************************************
2019/01/22 18:42
TAF TAF CYOW 221738Z 2218/2318 26006KT P6SM BKN220
FM222000 11005KT P6SM BKN100 OVC180
FM222300 10008KT P6SM OVC080
FM230600 08005KT 21/2SM -SN OVC050
FM230800 10010KT 11/2SM -SN BKN012 OVC030
RMK NXT FCST BY 222100Z


**********************************************
2019/01/22 18:42
TAF CYMX 221738Z 2218/2318 24012KT P6SM SCT240
FM222300 23005KT P6SM BKN100 OVC180
FM230200 VRB03KT P6SM OVC080
FM230800 05005KT 2SM -SN OVC030
FM231500 05008KT 21/2SM -SN SCT008 OVC015
RMK NXT FCST BY 230000Z


**********************************************